sensor_id;sensor_type;location;lat;lon;timestamp;pressure;altitude;pressure_sealevel;temperature;humidity
41688;BME280;27371;42.686;23.362;2023-05-01T00:02:24;165154.44;;;11.34;80.09
41688;BME280;27371;42.686;23.362;2023-05-01T00:04:49;165133.06;;;11.26;79.63
41688;BME280;27371;42.686;23.362;2023-05-01T00:07:15;165106.31;;;11.15;78.95
41688;BME280;27371;42.686;23.362;2023-05-01T00:09:41;165091.59;;;11.10;78.59
41688;BME280;27371;42.686;23.362;2023-05-01T00:12:06;165083.59;;;11.07;78.63
41688;BME280;27371;42.686;23.362;2023-05-01T00:14:32;165068.88;;;11.01;79.45
41688;BME280;27371;42.686;23.362;2023-05-01T00:16:58;165054.19;;;10.96;79.84
41688;BME280;27371;42.686;23.362;2023-05-01T00:19:23;165066.22;;;11.00;79.80
41688;BME280;27371;42.686;23.362;2023-05-01T00:21:49;165044.84;;;10.92;79.87
41688;BME280;27371;42.686;23.362;2023-05-01T00:24:16;165058.16;;;10.97;80.15
41688;BME280;27371;42.686;23.362;2023-05-01T00:26:42;165039.47;;;10.90;80.69
41688;BME280;27371;42.686;23.362;2023-05-01T00:29:07;165050.16;;;10.94;80.73
41688;BME280;27371;42.686;23.362;2023-05-01T00:31:34;165050.16;;;10.94;81.16
41688;BME280;27371;42.686;23.362;2023-05-01T00:33:59;165044.84;;;10.92;81.31
41688;BME280;27371;42.686;23.362;2023-05-01T00:36:25;165031.47;;;10.87;81.33
41688;BME280;27371;42.686;23.362;2023-05-01T00:38:51;165012.75;;;10.80;81.02
41688;BME280;27371;42.686;23.362;2023-05-01T00:41:16;164960.63;;;10.60;81.98
41688;BME280;27371;42.686;23.362;2023-05-01T00:43:42;164893.84;;;10.34;83.28
41688;BME280;27371;42.686;23.362;2023-05-01T00:46:08;164909.84;;;10.40;84.15
41688;BME280;27371;42.686;23.362;2023-05-01T00:48:34;164900.53;;;10.37;84.51
41688;BME280;27371;42.686;23.362;2023-05-01T00:51:03;164915.22;;;10.42;84.66
41688;BME280;27371;42.686;23.362;2023-05-01T00:53:30;164919.19;;;10.44;84.49
41688;BME280;27371;42.686;23.362;2023-05-01T00:55:57;164875.09;;;10.27;84.31
41688;BME280;27371;42.686;23.362;2023-05-01T00:58:22;164925.88;;;10.46;84.07
41688;BME280;27371;42.686;23.362;2023-05-01T01:00:48;164923.22;;;10.45;84.18
41688;BME280;27371;42.686;23.362;2023-05-01T01:03:14;164921.91;;;10.45;84.04
41688;BME280;27371;42.686;23.362;2023-05-01T01:09:16;164909.84;;;10.40;83.84
41688;BME280;27371;42.686;23.362;2023-05-01T01:12:08;164881.78;;;10.30;83.81
41688;BME280;27371;42.686;23.362;2023-05-01T01:14:44;164820.25;;;10.06;84.54
41688;BME280;27371;42.686;23.362;2023-05-01T01:17:14;164796.22;;;9.97;85.32
41688;BME280;27371;42.686;23.362;2023-05-01T01:22:23;164762.81;;;9.84;86.63
41688;BME280;27371;42.686;23.362;2023-05-01T01:28:02;164726.75;;;9.70;86.92
41688;BME280;27371;42.686;23.362;2023-05-01T01:33:53;164726.75;;;9.70;87.93
41688;BME280;27371;42.686;23.362;2023-05-01T01:41:49;164700.09;;;9.60;87.87
41688;BME280;27371;42.686;23.362;2023-05-01T01:44:19;164713.44;;;9.65;88.13
41688;BME280;27371;42.686;23.362;2023-05-01T01:46:48;164721.44;;;9.68;88.18
41688;BME280;27371;42.686;23.362;2023-05-01T01:49:36;164714.78;;;9.66;88.04
41688;BME280;27371;42.686;23.362;2023-05-01T01:52:04;164714.78;;;9.66;88.09
41688;BME280;27371;42.686;23.362;2023-05-01T01:54:34;164713.44;;;9.65;87.71
41688;BME280;27371;42.686;23.362;2023-05-01T01:57:03;164708.09;;;9.63;86.97
41688;BME280;27371;42.686;23.362;2023-05-01T01:59:32;164704.06;;;9.62;87.13
41688;BME280;27371;42.686;23.362;2023-05-01T02:01:59;164716.09;;;9.66;87.09
41688;BME280;27371;42.686;23.362;2023-05-01T02:04:27;164717.44;;;9.67;87.12
41688;BME280;27371;42.686;23.362;2023-05-01T02:06:55;164722.78;;;9.69;87.09
41688;BME280;27371;42.686;23.362;2023-05-01T02:09:22;164733.44;;;9.73;87.26
41688;BME280;27371;42.686;23.362;2023-05-01T02:11:49;164680.03;;;9.52;87.31
41688;BME280;27371;42.686;23.362;2023-05-01T02:14:17;164702.72;;;9.61;87.53
41688;BME280;27371;42.686;23.362;2023-05-01T02:16:42;164639.94;;;9.37;87.52
41688;BME280;27371;42.686;23.362;2023-05-01T02:19:08;164660.00;;;9.45;87.64
41688;BME280;27371;42.686;23.362;2023-05-01T02:21:35;164619.97;;;9.29;88.00
41688;BME280;27371;42.686;23.362;2023-05-01T02:24:04;164585.25;;;9.16;88.51
41688;BME280;27371;42.686;23.362;2023-05-01T02:26:35;164559.84;;;9.06;89.14
41688;BME280;27371;42.686;23.362;2023-05-01T02:29:02;164546.50;;;9.01;89.73
41688;BME280;27371;42.686;23.362;2023-05-01T02:31:29;164531.81;;;8.96;90.21
41688;BME280;27371;42.686;23.362;2023-05-01T02:33:54;164527.84;;;8.94;90.58
41688;BME280;27371;42.686;23.362;2023-05-01T02:36:20;164521.16;;;8.91;90.75
41688;BME280;27371;42.686;23.362;2023-05-01T02:38:46;164502.44;;;8.84;91.17
41688;BME280;27371;42.686;23.362;2023-05-01T02:41:15;164535.84;;;8.97;91.20
41688;BME280;27371;42.686;23.362;2023-05-01T02:43:41;164546.50;;;9.01;91.36
41688;BME280;27371;42.686;23.362;2023-05-01T02:46:09;164555.88;;;9.05;91.26
41688;BME280;27371;42.686;23.362;2023-05-01T02:48:37;164474.41;;;8.74;90.77
41688;BME280;27371;42.686;23.362;2023-05-01T02:51:03;164537.16;;;8.98;90.56
41688;BME280;27371;42.686;23.362;2023-05-01T02:53:29;164530.47;;;8.95;90.68
41688;BME280;27371;42.686;23.362;2023-05-01T02:55:56;164525.13;;;8.93;90.60
41688;BME280;27371;42.686;23.362;2023-05-01T02:58:22;164531.81;;;8.96;90.49
41688;BME280;27371;42.686;23.362;2023-05-01T03:00:48;164533.19;;;8.96;90.68
41688;BME280;27371;42.686;23.362;2023-05-01T03:03:14;164530.47;;;8.95;90.62
41688;BME280;27371;42.686;23.362;2023-05-01T03:05:40;164491.78;;;8.80;90.14
41688;BME280;27371;42.686;23.362;2023-05-01T03:08:06;164473.06;;;8.73;90.57
41688;BME280;27371;42.686;23.362;2023-05-01T03:10:32;164459.72;;;8.68;90.79
41688;BME280;27371;42.686;23.362;2023-05-01T03:12:58;164470.44;;;8.72;91.10
41688;BME280;27371;42.686;23.362;2023-05-01T03:15:24;164483.78;;;8.77;90.93
41688;BME280;27371;42.686;23.362;2023-05-01T03:17:50;164461.09;;;8.68;90.15
41688;BME280;27371;42.686;23.362;2023-05-01T03:20:15;164457.06;;;8.67;90.45
41688;BME280;27371;42.686;23.362;2023-05-01T03:22:41;164451.72;;;8.65;90.33
41688;BME280;27371;42.686;23.362;2023-05-01T03:25:07;164458.41;;;8.67;90.45
41688;BME280;27371;42.686;23.362;2023-05-01T03:27:33;164471.75;;;8.73;90.53
41688;BME280;27371;42.686;23.362;2023-05-01T03:29:58;164467.72;;;8.71;90.01
41688;BME280;27371;42.686;23.362;2023-05-01T03:32:24;164458.41;;;8.67;90.26
41688;BME280;27371;42.686;23.362;2023-05-01T03:34:50;164463.75;;;8.69;89.77
41688;BME280;27371;42.686;23.362;2023-05-01T03:37:15;164467.72;;;8.71;89.60
41688;BME280;27371;42.686;23.362;2023-05-01T03:39:40;164449.06;;;8.64;89.58
41688;BME280;27371;42.686;23.362;2023-05-01T03:42:06;164418.38;;;8.52;89.99
41688;BME280;27371;42.686;23.362;2023-05-01T03:44:31;164426.38;;;8.55;89.83
41688;BME280;27371;42.686;23.362;2023-05-01T03:46:57;164437.03;;;8.59;90.43
41688;BME280;27371;42.686;23.362;2023-05-01T03:49:23;164463.75;;;8.69;90.28
41688;BME280;27371;42.686;23.362;2023-05-01T03:51:49;164467.72;;;8.71;90.07
41688;BME280;27371;42.686;23.362;2023-05-01T03:54:14;164490.47;;;8.80;90.05
41688;BME280;27371;42.686;23.362;2023-05-01T03:56:40;164482.47;;;8.77;90.10
41688;BME280;27371;42.686;23.362;2023-05-01T03:59:05;164489.09;;;8.79;90.14
41688;BME280;27371;42.686;23.362;2023-05-01T04:01:31;164498.47;;;8.83;90.55
41688;BME280;27371;42.686;23.362;2023-05-01T04:03:58;164539.88;;;8.99;91.12
41688;BME280;27371;42.686;23.362;2023-05-01T04:06:24;164664.03;;;9.46;91.53
41688;BME280;27371;42.686;23.362;2023-05-01T04:08:50;164832.28;;;10.11;90.62
41688;BME280;27371;42.686;23.362;2023-05-01T04:11:15;164983.34;;;10.68;88.51
41688;BME280;27371;42.686;23.362;2023-05-01T04:13:41;165127.69;;;11.24;85.13
41688;BME280;27371;42.686;23.362;2023-05-01T04:16:06;165285.47;;;11.84;82.85
41688;BME280;27371;42.686;23.362;2023-05-01T04:18:32;165444.69;;;12.45;79.13
41688;BME280;27371;42.686;23.362;2023-05-01T04:20:57;165606.63;;;13.07;75.49
41688;BME280;27371;42.686;23.362;2023-05-01T04:23:23;165700.38;;;13.43;72.37
41688;BME280;27371;42.686;23.362;2023-05-01T04:25:48;165772.66;;;13.70;71.30
41688;BME280;27371;42.686;23.362;2023-05-01T04:28:14;165929.28;;;14.30;69.68
41688;BME280;27371;42.686;23.362;2023-05-01T04:30:39;166103.47;;;14.97;66.56
41688;BME280;27371;42.686;23.362;2023-05-01T04:33:05;166224.06;;;15.43;64.14
41688;BME280;27371;42.686;23.362;2023-05-01T04:35:36;166281.69;;;15.65;62.11
41688;BME280;27371;42.686;23.362;2023-05-01T04:38:06;166389.00;;;16.06;61.12
41688;BME280;27371;42.686;23.362;2023-05-01T04:40:32;166519.03;;;16.55;58.54
41688;BME280;27371;42.686;23.362;2023-05-01T04:42:58;166556.56;;;16.69;56.64
41688;BME280;27371;42.686;23.362;2023-05-01T04:45:23;166485.50;;;16.42;56.88
41688;BME280;27371;42.686;23.362;2023-05-01T04:47:49;166468.09;;;16.36;57.54
41688;BME280;27371;42.686;23.362;2023-05-01T04:50:15;166533.78;;;16.61;57.17
41688;BME280;27371;42.686;23.362;2023-05-01T04:52:40;166557.91;;;16.70;55.40
41688;BME280;27371;42.686;23.362;2023-05-01T04:55:06;166641.13;;;17.02;55.58
41688;BME280;27371;42.686;23.362;2023-05-01T04:57:32;166713.56;;;17.29;53.32
41688;BME280;27371;42.686;23.362;2023-05-01T04:59:58;166799.44;;;17.62;52.99
41688;BME280;27371;42.686;23.362;2023-05-01T05:02:23;166773.91;;;17.52;51.72
41688;BME280;27371;42.686;23.362;2023-05-01T05:04:49;166692.09;;;17.21;52.97
41688;BME280;27371;42.686;23.362;2023-05-01T05:07:15;166623.66;;;16.95;53.30
41688;BME280;27371;42.686;23.362;2023-05-01T05:09:40;166661.25;;;17.09;53.33
41688;BME280;27371;42.686;23.362;2023-05-01T05:12:06;166815.50;;;17.68;51.96
41688;BME280;27371;42.686;23.362;2023-05-01T05:14:31;166724.28;;;17.33;52.12
41688;BME280;27371;42.686;23.362;2023-05-01T05:16:57;166859.84;;;17.85;52.11
41688;BME280;27371;42.686;23.362;2023-05-01T05:19:23;166900.13;;;18.00;50.21
41688;BME280;27371;42.686;23.362;2023-05-01T05:21:48;166638.41;;;17.01;52.48
41688;BME280;27371;42.686;23.362;2023-05-01T05:24:14;166481.50;;;16.41;54.20
41688;BME280;27371;42.686;23.362;2023-05-01T05:26:39;166536.44;;;16.62;54.65
41688;BME280;27371;42.686;23.362;2023-05-01T05:29:05;166595.53;;;16.84;54.29
41688;BME280;27371;42.686;23.362;2023-05-01T05:31:30;166587.47;;;16.81;54.00
41688;BME280;27371;42.686;23.362;2023-05-01T05:33:56;166578.09;;;16.78;53.86
41688;BME280;27371;42.686;23.362;2023-05-01T05:36:22;166571.31;;;16.75;54.71
41688;BME280;27371;42.686;23.362;2023-05-01T05:38:47;166362.16;;;15.95;56.02
41688;BME280;27371;42.686;23.362;2023-05-01T05:41:13;166362.16;;;15.95;56.72
41688;BME280;27371;42.686;23.362;2023-05-01T05:43:38;166331.34;;;15.84;56.94
41688;BME280;27371;42.686;23.362;2023-05-01T05:46:03;166234.81;;;15.47;58.36
41688;BME280;27371;42.686;23.362;2023-05-01T05:48:29;166118.19;;;15.02;59.55
41688;BME280;27371;42.686;23.362;2023-05-01T05:50:55;166198.63;;;15.33;59.75
41688;BME280;27371;42.686;23.362;2023-05-01T05:53:21;166257.59;;;15.55;58.65
41688;BME280;27371;42.686;23.362;2023-05-01T05:55:47;166308.56;;;15.75;58.81
41688;BME280;27371;42.686;23.362;2023-05-01T05:58:13;166411.78;;;16.14;57.34
41688;BME280;27371;42.686;23.362;2023-05-01T06:00:46;166469.41;;;16.36;56.73
41688;BME280;27371;42.686;23.362;2023-05-01T06:03:13;166576.75;;;16.77;55.64
41688;BME280;27371;42.686;23.362;2023-05-01T06:05:39;166482.84;;;16.41;55.68
41688;BME280;27371;42.686;23.362;2023-05-01T06:10:48;166434.56;;;16.23;56.94
41688;BME280;27371;42.686;23.362;2023-05-01T06:13:14;166488.22;;;16.43;56.21
41688;BME280;27371;42.686;23.362;2023-05-01T06:15:40;166541.81;;;16.64;55.65
41688;BME280;27371;42.686;23.362;2023-05-01T06:18:06;166560.63;;;16.71;55.21
41688;BME280;27371;42.686;23.362;2023-05-01T06:20:32;166535.13;;;16.61;55.89
41688;BME280;27371;42.686;23.362;2023-05-01T06:22:57;166543.16;;;16.64;55.90
41688;BME280;27371;42.686;23.362;2023-05-01T06:25:23;166651.84;;;17.06;54.89
41688;BME280;27371;42.686;23.362;2023-05-01T06:27:49;166759.16;;;17.47;53.63
41688;BME280;27371;42.686;23.362;2023-05-01T06:30:15;166786.00;;;17.57;53.23
41688;BME280;27371;42.686;23.362;2023-05-01T06:32:41;166775.25;;;17.53;52.79
41688;BME280;27371;42.686;23.362;2023-05-01T06:35:09;166698.81;;;17.24;53.59
41688;BME280;27371;42.686;23.362;2023-05-01T06:37:34;166717.56;;;17.31;53.77
41688;BME280;27371;42.686;23.362;2023-05-01T06:40:03;166666.59;;;17.11;53.80
41688;BME280;27371;42.686;23.362;2023-05-01T06:42:29;166653.16;;;17.06;54.02
41688;BME280;27371;42.686;23.362;2023-05-01T06:44:54;166665.25;;;17.11;54.20
41688;BME280;27371;42.686;23.362;2023-05-01T06:47:20;166735.03;;;17.38;53.75
41688;BME280;27371;42.686;23.362;2023-05-01T06:49:46;166763.19;;;17.48;53.12
41688;BME280;27371;42.686;23.362;2023-05-01T06:52:11;166733.69;;;17.37;53.81
41688;BME280;27371;42.686;23.362;2023-05-01T06:54:37;166752.44;;;17.44;53.80
41688;BME280;27371;42.686;23.362;2023-05-01T06:57:03;166741.72;;;17.40;53.61
41688;BME280;27371;42.686;23.362;2023-05-01T06:59:28;166799.44;;;17.62;52.67
41688;BME280;27371;42.686;23.362;2023-05-01T07:01:54;166806.13;;;17.65;52.67
41688;BME280;27371;42.686;23.362;2023-05-01T07:04:20;166804.75;;;17.64;52.88
41688;BME280;27371;42.686;23.362;2023-05-01T07:06:45;166908.16;;;18.03;52.38
41688;BME280;27371;42.686;23.362;2023-05-01T07:09:11;166961.81;;;18.24;51.16
41688;BME280;27371;42.686;23.362;2023-05-01T07:11:38;166930.97;;;18.12;50.90
41688;BME280;27371;42.686;23.362;2023-05-01T07:14:03;166930.97;;;18.12;51.45
41688;BME280;27371;42.686;23.362;2023-05-01T07:16:29;166975.25;;;18.29;50.65
41688;BME280;27371;42.686;23.362;2023-05-01T07:18:54;167032.97;;;18.51;50.11
41688;BME280;27371;42.686;23.362;2023-05-01T07:21:21;167102.84;;;18.78;49.08
41688;BME280;27371;42.686;23.362;2023-05-01T07:23:46;167094.78;;;18.75;48.95
41688;BME280;27371;42.686;23.362;2023-05-01T07:26:12;167094.78;;;18.75;49.66
41688;BME280;27371;42.686;23.362;2023-05-01T07:28:37;167140.41;;;18.92;49.35
41688;BME280;27371;42.686;23.362;2023-05-01T07:31:03;167126.97;;;18.87;49.33
41688;BME280;27371;42.686;23.362;2023-05-01T07:33:29;167097.44;;;18.76;50.29
41688;BME280;27371;42.686;23.362;2023-05-01T07:35:55;167110.88;;;18.81;50.71
41688;BME280;27371;42.686;23.362;2023-05-01T07:38:21;167125.66;;;18.86;50.43
41688;BME280;27371;42.686;23.362;2023-05-01T07:40:46;167143.09;;;18.93;50.38
41688;BME280;27371;42.686;23.362;2023-05-01T07:43:11;167215.59;;;19.21;49.71
41688;BME280;27371;42.686;23.362;2023-05-01T07:45:38;167247.84;;;19.33;48.71
41688;BME280;27371;42.686;23.362;2023-05-01T07:48:04;167267.94;;;19.41;49.06
41688;BME280;27371;42.686;23.362;2023-05-01T07:50:30;167246.44;;;19.32;48.49
41688;BME280;27371;42.686;23.362;2023-05-01T07:52:56;167175.34;;;19.05;49.58
41688;BME280;27371;42.686;23.362;2023-05-01T07:55:22;167140.41;;;18.92;50.25
41688;BME280;27371;42.686;23.362;2023-05-01T07:57:47;167196.81;;;19.13;49.15
41688;BME280;27371;42.686;23.362;2023-05-01T08:00:14;167219.63;;;19.22;49.17
41688;BME280;27371;42.686;23.362;2023-05-01T08:02:39;167145.81;;;18.94;49.08
41688;BME280;27371;42.686;23.362;2023-05-01T08:05:05;167069.22;;;18.65;49.79
41688;BME280;27371;42.686;23.362;2023-05-01T08:07:31;167077.25;;;18.68;50.41
41688;BME280;27371;42.686;23.362;2023-05-01T08:09:57;167055.78;;;18.60;50.09
41688;BME280;27371;42.686;23.362;2023-05-01T08:12:24;167057.09;;;18.60;50.00
41688;BME280;27371;42.686;23.362;2023-05-01T08:14:50;167092.03;;;18.74;49.84
41688;BME280;27371;42.686;23.362;2023-05-01T08:17:15;167164.56;;;19.01;48.92
41688;BME280;27371;42.686;23.362;2023-05-01T08:19:41;167225.03;;;19.24;48.13
41688;BME280;27371;42.686;23.362;2023-05-01T08:22:06;167269.34;;;19.41;47.52
41688;BME280;27371;42.686;23.362;2023-05-01T08:24:32;167309.59;;;19.56;47.20
41688;BME280;27371;42.686;23.362;2023-05-01T08:26:57;167345.91;;;19.70;46.93
41688;BME280;27371;42.686;23.362;2023-05-01T08:29:23;167401.00;;;19.91;47.05
41688;BME280;27371;42.686;23.362;2023-05-01T08:31:48;167433.19;;;20.03;44.75
41688;BME280;27371;42.686;23.362;2023-05-01T08:34:14;167406.38;;;19.93;44.24
41688;BME280;27371;42.686;23.362;2023-05-01T08:36:41;167391.59;;;19.88;43.23
41688;BME280;27371;42.686;23.362;2023-05-01T08:39:09;167284.09;;;19.47;42.67
41688;BME280;27371;42.686;23.362;2023-05-01T08:41:36;167276.03;;;19.44;43.74
41688;BME280;27371;42.686;23.362;2023-05-01T08:44:02;167351.28;;;19.72;43.63
41688;BME280;27371;42.686;23.362;2023-05-01T08:49:01;167366.06;;;19.78;43.77
41688;BME280;27371;42.686;23.362;2023-05-01T08:51:30;167328.41;;;19.64;44.54
41688;BME280;27371;42.686;23.362;2023-05-01T08:53:58;167313.63;;;19.58;44.18
41688;BME280;27371;42.686;23.362;2023-05-01T08:56:27;167319.03;;;19.60;42.82
41688;BME280;27371;42.686;23.362;2023-05-01T08:58:54;167305.59;;;19.55;42.49
41688;BME280;27371;42.686;23.362;2023-05-01T09:01:22;167246.44;;;19.32;42.65
41688;BME280;27371;42.686;23.362;2023-05-01T09:03:49;167172.63;;;19.04;42.89
41688;BME280;27371;42.686;23.362;2023-05-01T09:06:15;167153.84;;;18.97;44.43
41688;BME280;27371;42.686;23.362;2023-05-01T09:08:40;167198.16;;;19.14;43.99
41688;BME280;27371;42.686;23.362;2023-05-01T09:11:06;167175.34;;;19.05;43.43
41688;BME280;27371;42.686;23.362;2023-05-01T09:13:32;167178.00;;;19.06;43.82
41688;BME280;27371;42.686;23.362;2023-05-01T09:15:58;167199.47;;;19.14;44.03
41688;BME280;27371;42.686;23.362;2023-05-01T09:18:24;167222.31;;;19.23;43.30
41688;BME280;27371;42.686;23.362;2023-05-01T09:20:50;167169.94;;;19.03;43.95
41688;BME280;27371;42.686;23.362;2023-05-01T09:23:16;167178.00;;;19.06;45.25
41688;BME280;27371;42.686;23.362;2023-05-01T09:25:42;167227.69;;;19.25;44.89
41688;BME280;27371;42.686;23.362;2023-05-01T09:28:08;167246.44;;;19.32;44.24
41688;BME280;27371;42.686;23.362;2023-05-01T09:30:36;167210.19;;;19.19;44.59
41688;BME280;27371;42.686;23.362;2023-05-01T09:33:14;167206.19;;;19.17;44.25
41688;BME280;27371;42.686;23.362;2023-05-01T09:35:54;167204.88;;;19.17;43.09
41688;BME280;27371;42.686;23.362;2023-05-01T09:38:25;167203.53;;;19.16;43.59
41688;BME280;27371;42.686;23.362;2023-05-01T09:40:56;167225.03;;;19.24;43.20
41688;BME280;27371;42.686;23.362;2023-05-01T09:43:28;167245.13;;;19.32;43.56
41688;BME280;27371;42.686;23.362;2023-05-01T09:46:02;167274.66;;;19.43;42.38
41688;BME280;27371;42.686;23.362;2023-05-01T09:48:29;167235.75;;;19.28;41.75
41688;BME280;27371;42.686;23.362;2023-05-01T09:50:55;167298.88;;;19.52;42.34
41688;BME280;27371;42.686;23.362;2023-05-01T09:53:35;167298.88;;;19.52;42.25
41688;BME280;27371;42.686;23.362;2023-05-01T09:56:01;167321.69;;;19.61;42.32
41688;BME280;27371;42.686;23.362;2023-05-01T09:58:27;167340.50;;;19.68;42.15
41688;BME280;27371;42.686;23.362;2023-05-01T10:00:53;167399.66;;;19.91;41.22
41688;BME280;27371;42.686;23.362;2023-05-01T10:03:18;167405.00;;;19.93;40.53
41688;BME280;27371;42.686;23.362;2023-05-01T10:05:44;167406.38;;;19.93;41.02
41688;BME280;27371;42.686;23.362;2023-05-01T10:08:09;167367.38;;;19.78;40.81
41688;BME280;27371;42.686;23.362;2023-05-01T10:10:42;167329.75;;;19.64;42.21
41688;BME280;27371;42.686;23.362;2023-05-01T10:13:17;167407.72;;;19.94;43.01
41688;BME280;27371;42.686;23.362;2023-05-01T10:15:44;167421.16;;;19.99;42.86
41688;BME280;27371;42.686;23.362;2023-05-01T10:18:11;167433.19;;;20.03;42.88
41688;BME280;27371;42.686;23.362;2023-05-01T10:20:38;167403.66;;;19.92;41.29
41688;BME280;27371;42.686;23.362;2023-05-01T10:23:04;167325.69;;;19.63;41.82
41688;BME280;27371;42.686;23.362;2023-05-01T10:25:31;167382.16;;;19.84;42.22
41688;BME280;27371;42.686;23.362;2023-05-01T10:27:57;167331.06;;;19.65;39.88
41688;BME280;27371;42.686;23.362;2023-05-01T10:30:24;167351.28;;;19.72;41.84
41688;BME280;27371;42.686;23.362;2023-05-01T10:32:51;167417.09;;;19.97;42.28
41688;BME280;27371;42.686;23.362;2023-05-01T10:35:22;167401.00;;;19.91;42.36
41688;BME280;27371;42.686;23.362;2023-05-01T10:38:00;167418.44;;;19.98;42.66
41688;BME280;27371;42.686;23.362;2023-05-01T10:45:54;167278.72;;;19.45;42.59
41688;BME280;27371;42.686;23.362;2023-05-01T10:51:22;167500.41;;;20.29;40.03
41688;BME280;27371;42.686;23.362;2023-05-01T10:59:02;167339.19;;;19.68;40.58
41688;BME280;27371;42.686;23.362;2023-05-01T11:01:44;167273.31;;;19.43;41.36
41688;BME280;27371;42.686;23.362;2023-05-01T11:09:50;167171.28;;;19.04;41.25
41688;BME280;27371;42.686;23.362;2023-05-01T11:15:10;167176.66;;;19.06;41.39
41688;BME280;27371;42.686;23.362;2023-05-01T11:22:52;167290.81;;;19.49;40.68
41688;BME280;27371;42.686;23.362;2023-05-01T11:25:22;167359.34;;;19.75;39.57
41688;BME280;27371;42.686;23.362;2023-05-01T11:27:49;167351.28;;;19.72;38.19
41688;BME280;27371;42.686;23.362;2023-05-01T11:30:16;167379.50;;;19.83;38.56
41688;BME280;27371;42.686;23.362;2023-05-01T11:32:45;167421.16;;;19.99;37.65
41688;BME280;27371;42.686;23.362;2023-05-01T11:35:23;167391.59;;;19.88;37.94
41688;BME280;27371;42.686;23.362;2023-05-01T11:37:51;167374.13;;;19.81;36.48
41688;BME280;27371;42.686;23.362;2023-05-01T11:40:27;167336.50;;;19.67;36.52
41688;BME280;27371;42.686;23.362;2023-05-01T11:43:03;167301.53;;;19.53;37.02
41688;BME280;27371;42.686;23.362;2023-05-01T11:45:30;167276.03;;;19.44;36.36
41688;BME280;27371;42.686;23.362;2023-05-01T11:47:56;167286.75;;;19.48;38.38
41688;BME280;27371;42.686;23.362;2023-05-01T11:50:34;167281.38;;;19.46;39.24
41688;BME280;27371;42.686;23.362;2023-05-01T11:53:00;167320.34;;;19.61;39.06
41688;BME280;27371;42.686;23.362;2023-05-01T11:55:31;167360.69;;;19.76;38.54
41688;BME280;27371;42.686;23.362;2023-05-01T11:57:56;167394.28;;;19.89;38.56
41688;BME280;27371;42.686;23.362;2023-05-01T12:00:27;167390.22;;;19.87;37.99
41688;BME280;27371;42.686;23.362;2023-05-01T12:03:05;167409.03;;;19.94;38.18
41688;BME280;27371;42.686;23.362;2023-05-01T12:05:32;167421.16;;;19.99;37.94
41688;BME280;27371;42.686;23.362;2023-05-01T12:08:22;167406.38;;;19.93;37.58
41688;BME280;27371;42.686;23.362;2023-05-01T12:10:50;167337.84;;;19.67;37.47
41688;BME280;27371;42.686;23.362;2023-05-01T12:13:16;167325.69;;;19.63;36.72
41688;BME280;27371;42.686;23.362;2023-05-01T12:15:44;167349.94;;;19.72;35.96
41688;BME280;27371;42.686;23.362;2023-05-01T12:18:13;167402.31;;;19.92;36.21
41688;BME280;27371;42.686;23.362;2023-05-01T12:20:43;167445.31;;;20.08;35.66
41688;BME280;27371;42.686;23.362;2023-05-01T12:23:10;167396.94;;;19.90;35.45
41688;BME280;27371;42.686;23.362;2023-05-01T12:25:37;167379.50;;;19.83;36.87
41688;BME280;27371;42.686;23.362;2023-05-01T12:28:12;167309.59;;;19.56;37.43
41688;BME280;27371;42.686;23.362;2023-05-01T12:30:39;167259.91;;;19.38;40.88
41688;BME280;27371;42.686;23.362;2023-05-01T12:33:09;167227.69;;;19.25;41.45
41688;BME280;27371;42.686;23.362;2023-05-01T12:35:35;167188.78;;;19.10;41.81
41688;BME280;27371;42.686;23.362;2023-05-01T12:38:09;167225.03;;;19.24;41.56
41688;BME280;27371;42.686;23.362;2023-05-01T12:40:37;167183.38;;;19.08;41.08
41688;BME280;27371;42.686;23.362;2023-05-01T12:43:03;167110.88;;;18.81;41.47
41688;BME280;27371;42.686;23.362;2023-05-01T12:45:28;167136.38;;;18.90;41.91
41688;BME280;27371;42.686;23.362;2023-05-01T12:47:54;167121.59;;;18.85;41.91
41688;BME280;27371;42.686;23.362;2023-05-01T12:50:20;167153.84;;;18.97;41.26
41688;BME280;27371;42.686;23.362;2023-05-01T12:52:46;167161.91;;;19.00;41.39
41688;BME280;27371;42.686;23.362;2023-05-01T12:55:12;167194.09;;;19.12;41.72
41688;BME280;27371;42.686;23.362;2023-05-01T12:57:57;167114.88;;;18.82;43.42
41688;BME280;27371;42.686;23.362;2023-05-01T13:00:23;167114.88;;;18.82;43.75
41688;BME280;27371;42.686;23.362;2023-05-01T13:02:49;167114.88;;;18.82;43.39
41688;BME280;27371;42.686;23.362;2023-05-01T13:05:15;167159.19;;;18.99;43.27
41688;BME280;27371;42.686;23.362;2023-05-01T13:07:46;167131.03;;;18.88;43.43
41688;BME280;27371;42.686;23.362;2023-05-01T13:10:12;167075.94;;;18.67;44.05
41688;BME280;27371;42.686;23.362;2023-05-01T13:12:45;167061.16;;;18.62;43.68
41688;BME280;27371;42.686;23.362;2023-05-01T13:15:19;167073.25;;;18.66;42.62
41688;BME280;27371;42.686;23.362;2023-05-01T13:17:45;167024.91;;;18.48;43.06
41688;BME280;27371;42.686;23.362;2023-05-01T13:20:11;167058.50;;;18.61;42.85
41688;BME280;27371;42.686;23.362;2023-05-01T13:22:37;167070.53;;;18.65;41.91
41688;BME280;27371;42.686;23.362;2023-05-01T13:25:17;167070.53;;;18.65;41.23
41688;BME280;27371;42.686;23.362;2023-05-01T13:27:51;167053.09;;;18.59;40.44
41688;BME280;27371;42.686;23.362;2023-05-01T13:30:19;167079.91;;;18.69;40.00
41688;BME280;27371;42.686;23.362;2023-05-01T13:32:48;167100.13;;;18.77;40.05
41688;BME280;27371;42.686;23.362;2023-05-01T13:35:23;167094.78;;;18.75;39.91